Terminal Aerodrome Forecast
Issued by NWS

Home | Current Version | Previous Version | Text Only | Print | Product List | Glossary On
Versions: 1 2 3 4 5 6 7 8 9 10 11 12 13 14 15 16 17 18 19 20 21 22 23 24 25 26 27 28 29 30 31 32 33
000
FTUS45 KSLC 031120
TAFPVU
TAF
KPVU 031120Z 0312/0412 12007KT P6SM -SHRA FEW015 BKN040
      TEMPO 0312/0314 BKN010
     FM031600 16006KT P6SM VCSH SCT080 BKN110
     FM032000 31010KT P6SM SCT090 SCT120
     FM040300 VRB04KT P6SM SCT150
      AMD LTD TO CLD VIS AND WIND=

USA.gov is the U.S. government's official web portal to all federal, state and local government web resources and services.